sensor_id;sensor_type;location;lat;lon;timestamp;pressure;altitude;pressure_sealevel;temperature;humidity
75549;BME280;64133;56.002;37.208;2023-03-17T00:02:02;99278.17;;;0.89;77.08
75549;BME280;64133;56.002;37.208;2023-03-17T00:07:06;99286.20;;;0.93;77.20
75549;BME280;64133;56.002;37.208;2023-03-17T00:12:12;99289.77;;;1.00;77.29
75549;BME280;64133;56.002;37.208;2023-03-17T00:17:17;99291.16;;;1.08;77.04
75549;BME280;64133;56.002;37.208;2023-03-17T00:22:21;99293.58;;;1.02;76.71
75549;BME280;64133;56.002;37.208;2023-03-17T00:27:26;99299.37;;;0.88;76.94
75549;BME280;64133;56.002;37.208;2023-03-17T00:32:31;99306.55;;;1.02;77.16
75549;BME280;64133;56.002;37.208;2023-03-17T00:37:36;99316.52;;;1.11;76.78
75549;BME280;64133;56.002;37.208;2023-03-17T00:42:40;99320.32;;;1.13;76.65
75549;BME280;64133;56.002;37.208;2023-03-17T00:47:45;99324.21;;;1.13;76.63
75549;BME280;64133;56.002;37.208;2023-03-17T00:52:50;99251.12;;;0.65;76.37
75549;BME280;64133;56.002;37.208;2023-03-17T00:57:54;99324.83;;;1.09;76.37
75549;BME280;64133;56.002;37.208;2023-03-17T01:02:59;99325.08;;;1.03;76.10
75549;BME280;64133;56.002;37.208;2023-03-17T01:08:04;99328.91;;;0.94;76.08
75549;BME280;64133;56.002;37.208;2023-03-17T01:13:11;99325.56;;;0.72;76.39
75549;BME280;64133;56.002;37.208;2023-03-17T01:18:16;99338.51;;;0.82;76.59
75549;BME280;64133;56.002;37.208;2023-03-17T01:23:20;99347.66;;;0.81;76.37
75549;BME280;64133;56.002;37.208;2023-03-17T01:28:25;99346.17;;;0.85;76.42
75549;BME280;64133;56.002;37.208;2023-03-17T01:33:29;99359.13;;;0.85;76.34
75549;BME280;64133;56.002;37.208;2023-03-17T01:38:35;99368.41;;;0.81;76.15
75549;BME280;64133;56.002;37.208;2023-03-17T01:43:39;99376.37;;;0.76;76.04
75549;BME280;64133;56.002;37.208;2023-03-17T01:48:44;99391.42;;;0.88;75.87
75549;BME280;64133;56.002;37.208;2023-03-17T01:53:49;99391.62;;;0.84;75.41
75549;BME280;64133;56.002;37.208;2023-03-17T01:58:53;99408.59;;;0.81;75.32
75549;BME280;64133;56.002;37.208;2023-03-17T02:03:58;99417.73;;;0.89;75.08
75549;BME280;64133;56.002;37.208;2023-03-17T02:09:02;99410.27;;;0.71;74.78
75549;BME280;64133;56.002;37.208;2023-03-17T02:14:07;99410.45;;;0.67;74.76
75549;BME280;64133;56.002;37.208;2023-03-17T02:19:12;99420.75;;;0.68;74.64
75549;BME280;64133;56.002;37.208;2023-03-17T02:24:20;99435.09;;;0.67;74.47
75549;BME280;64133;56.002;37.208;2023-03-17T02:29:23;99442.78;;;0.68;74.32
75549;BME280;64133;56.002;37.208;2023-03-17T02:34:28;99453.88;;;0.72;74.04
75549;BME280;64133;56.002;37.208;2023-03-17T02:39:33;99465.89;;;0.74;73.80
75549;BME280;64133;56.002;37.208;2023-03-17T02:44:37;99470.55;;;0.77;73.64
75549;BME280;64133;56.002;37.208;2023-03-17T02:49:42;99486.76;;;0.82;73.13
75549;BME280;64133;56.002;37.208;2023-03-17T02:54:47;99504.63;;;0.78;72.77
75549;BME280;64133;56.002;37.208;2023-03-17T02:59:52;99497.52;;;0.61;72.25
75549;BME280;64133;56.002;37.208;2023-03-17T03:04:56;99495.98;;;0.57;72.28
75549;BME280;64133;56.002;37.208;2023-03-17T03:10:01;99494.63;;;0.68;72.27
75549;BME280;64133;56.002;37.208;2023-03-17T03:15:07;99493.91;;;0.65;71.90
75549;BME280;64133;56.002;37.208;2023-03-17T03:20:13;99486.77;;;0.60;71.71
75549;BME280;64133;56.002;37.208;2023-03-17T03:25:17;99488.77;;;0.53;71.72
75549;BME280;64133;56.002;37.208;2023-03-17T03:30:22;99508.42;;;0.47;71.63
75549;BME280;64133;56.002;37.208;2023-03-17T03:35:27;99520.55;;;0.46;71.59
75549;BME280;64133;56.002;37.208;2023-03-17T03:40:31;99539.41;;;0.50;71.56
75549;BME280;64133;56.002;37.208;2023-03-17T03:45:36;99544.03;;;0.54;71.67
75549;BME280;64133;56.002;37.208;2023-03-17T03:50:41;99550.80;;;0.46;71.43
75549;BME280;64133;56.002;37.208;2023-03-17T03:55:45;99556.44;;;0.45;70.96
75549;BME280;64133;56.002;37.208;2023-03-17T04:06:04;99574.61;;;0.56;70.70
75549;BME280;64133;56.002;37.208;2023-03-17T04:11:09;99588.09;;;0.54;70.47
75549;BME280;64133;56.002;37.208;2023-03-17T04:16:13;99597.27;;;0.50;70.00
75549;BME280;64133;56.002;37.208;2023-03-17T04:21:18;99590.55;;;0.68;69.42
75549;BME280;64133;56.002;37.208;2023-03-17T04:26:23;99595.91;;;0.75;68.92
75549;BME280;64133;56.002;37.208;2023-03-17T04:31:27;99606.38;;;1.18;68.14
75549;BME280;64133;56.002;37.208;2023-03-17T04:36:32;99611.77;;;2.07;66.87
75549;BME280;64133;56.002;37.208;2023-03-17T04:41:37;99632.12;;;2.65;64.53
75549;BME280;64133;56.002;37.208;2023-03-17T04:46:41;99638.48;;;2.87;63.43
75549;BME280;64133;56.002;37.208;2023-03-17T04:51:46;99636.65;;;2.51;62.75
75549;BME280;64133;56.002;37.208;2023-03-17T04:56:51;99648.31;;;2.72;63.11
75549;BME280;64133;56.002;37.208;2023-03-17T05:01:55;99656.80;;;3.94;61.65
75549;BME280;64133;56.002;37.208;2023-03-17T05:07:00;99657.47;;;8.91;55.40
75549;BME280;64133;56.002;37.208;2023-03-17T05:12:06;99671.19;;;15.20;42.01
75549;BME280;64133;56.002;37.208;2023-03-17T05:17:11;99677.68;;;15.53;37.40
75549;BME280;64133;56.002;37.208;2023-03-17T05:22:15;99685.86;;;18.15;34.08
75549;BME280;64133;56.002;37.208;2023-03-17T05:27:20;99678.79;;;18.91;33.78
75549;BME280;64133;56.002;37.208;2023-03-17T05:32:25;99687.01;;;21.30;28.20
75549;BME280;64133;56.002;37.208;2023-03-17T05:37:29;99699.48;;;23.40;26.58
75549;BME280;64133;56.002;37.208;2023-03-17T05:42:34;99710.09;;;19.53;28.08
75549;BME280;64133;56.002;37.208;2023-03-17T05:47:39;99716.32;;;17.83;30.17
75549;BME280;64133;56.002;37.208;2023-03-17T05:52:43;99731.83;;;13.16;32.91
75549;BME280;64133;56.002;37.208;2023-03-17T05:57:48;99739.22;;;11.42;34.25
75549;BME280;64133;56.002;37.208;2023-03-17T06:02:52;99754.22;;;14.70;31.31
75549;BME280;64133;56.002;37.208;2023-03-17T06:07:57;99763.69;;;13.85;29.12
75549;BME280;64133;56.002;37.208;2023-03-17T06:13:02;99771.22;;;11.03;33.35
75549;BME280;64133;56.002;37.208;2023-03-17T06:18:06;99778.75;;;11.87;32.43
75549;BME280;64133;56.002;37.208;2023-03-17T06:23:11;99771.70;;;12.19;32.02
75549;BME280;64133;56.002;37.208;2023-03-17T06:28:16;99782.61;;;10.93;32.70
75549;BME280;64133;56.002;37.208;2023-03-17T06:33:20;99792.84;;;9.90;34.26
75549;BME280;64133;56.002;37.208;2023-03-17T06:38:25;99797.57;;;9.48;34.34
75549;BME280;64133;56.002;37.208;2023-03-17T06:43:30;99801.73;;;9.01;34.74
75549;BME280;64133;56.002;37.208;2023-03-17T06:48:34;99809.02;;;8.11;35.71
75549;BME280;64133;56.002;37.208;2023-03-17T06:53:39;99801.50;;;9.04;34.74
75549;BME280;64133;56.002;37.208;2023-03-17T06:58:44;99798.30;;;11.05;33.02
75549;BME280;64133;56.002;37.208;2023-03-17T07:03:48;99798.42;;;10.93;32.09
75549;BME280;64133;56.002;37.208;2023-03-17T07:08:53;99800.06;;;18.36;24.63
75549;BME280;64133;56.002;37.208;2023-03-17T07:13:58;99815.17;;;12.10;28.54
75549;BME280;64133;56.002;37.208;2023-03-17T07:19:02;99807.55;;;20.40;23.83
75549;BME280;64133;56.002;37.208;2023-03-17T07:24:07;99826.69;;;20.97;22.89
75549;BME280;64133;56.002;37.208;2023-03-17T07:29:12;99831.59;;;25.27;20.11
75549;BME280;64133;56.002;37.208;2023-03-17T07:34:17;99828.45;;;27.80;17.39
75549;BME280;64133;56.002;37.208;2023-03-17T07:39:22;99844.00;;;24.68;18.90
75549;BME280;64133;56.002;37.208;2023-03-17T07:44:26;99842.25;;;28.18;15.96
75549;BME280;64133;56.002;37.208;2023-03-17T07:49:31;99840.63;;;27.80;16.46
75549;BME280;64133;56.002;37.208;2023-03-17T07:54:36;99840.41;;;27.29;16.08
75549;BME280;64133;56.002;37.208;2023-03-17T07:59:40;99854.02;;;20.47;20.30
75549;BME280;64133;56.002;37.208;2023-03-17T08:04:45;99849.09;;;22.91;17.27
75549;BME280;64133;56.002;37.208;2023-03-17T08:09:50;99862.23;;;17.77;20.62
75549;BME280;64133;56.002;37.208;2023-03-17T08:14:55;99865.68;;;18.83;19.89
75549;BME280;64133;56.002;37.208;2023-03-17T08:19:59;99867.56;;;18.20;20.12
75549;BME280;64133;56.002;37.208;2023-03-17T08:25:05;99865.27;;;21.89;17.33
75549;BME280;64133;56.002;37.208;2023-03-17T08:30:12;99867.20;;;30.21;12.88
75549;BME280;64133;56.002;37.208;2023-03-17T08:35:16;99882.67;;;28.59;12.76
75549;BME280;64133;56.002;37.208;2023-03-17T08:40:21;99890.69;;;25.02;14.05
75549;BME280;64133;56.002;37.208;2023-03-17T08:45:26;99881.92;;;26.92;12.47
75549;BME280;64133;56.002;37.208;2023-03-17T08:50:30;99886.63;;;24.89;12.80
75549;BME280;64133;56.002;37.208;2023-03-17T08:55:35;99897.36;;;25.39;12.19
75549;BME280;64133;56.002;37.208;2023-03-17T09:00:40;99903.85;;;21.88;12.61
75549;BME280;64133;56.002;37.208;2023-03-17T09:05:44;99917.55;;;15.44;16.43
75549;BME280;64133;56.002;37.208;2023-03-17T09:10:49;99921.75;;;12.37;18.90
75549;BME280;64133;56.002;37.208;2023-03-17T09:15:53;99933.91;;;12.66;21.25
75549;BME280;64133;56.002;37.208;2023-03-17T09:20:58;99933.36;;;12.51;20.86
75549;BME280;64133;56.002;37.208;2023-03-17T09:26:03;99932.28;;;11.41;20.62
75549;BME280;64133;56.002;37.208;2023-03-17T09:31:11;99938.56;;;10.87;21.16
75549;BME280;64133;56.002;37.208;2023-03-17T09:36:12;99949.69;;;11.49;21.13
75549;BME280;64133;56.002;37.208;2023-03-17T09:47:00;99953.39;;;10.76;22.29
75549;BME280;64133;56.002;37.208;2023-03-17T09:52:04;99966.76;;;10.05;21.86
75549;BME280;64133;56.002;37.208;2023-03-17T09:57:13;99969.34;;;9.23;22.51
75549;BME280;64133;56.002;37.208;2023-03-17T10:02:21;99971.08;;;10.19;22.08
75549;BME280;64133;56.002;37.208;2023-03-17T10:07:24;99966.83;;;10.61;21.27
75549;BME280;64133;56.002;37.208;2023-03-17T10:12:33;99967.16;;;9.10;22.07
75549;BME280;64133;56.002;37.208;2023-03-17T10:17:37;99965.36;;;10.07;22.25
75549;BME280;64133;56.002;37.208;2023-03-17T10:22:42;99972.12;;;10.66;22.20
75549;BME280;64133;56.002;37.208;2023-03-17T10:27:47;99981.78;;;10.11;21.56
75549;BME280;64133;56.002;37.208;2023-03-17T10:32:51;99979.64;;;11.37;21.91
75549;BME280;64133;56.002;37.208;2023-03-17T10:37:56;99986.24;;;14.45;19.06
75549;BME280;64133;56.002;37.208;2023-03-17T10:43:02;99985.91;;;16.08;17.86
75549;BME280;64133;56.002;37.208;2023-03-17T10:48:08;99988.84;;;16.29;16.55
75549;BME280;64133;56.002;37.208;2023-03-17T10:53:18;99989.77;;;14.70;16.57
75549;BME280;64133;56.002;37.208;2023-03-17T10:58:24;99994.55;;;14.96;16.84
75549;BME280;64133;56.002;37.208;2023-03-17T11:03:27;99985.69;;;14.91;17.22
75549;BME280;64133;56.002;37.208;2023-03-17T11:08:32;99996.30;;;16.71;16.20
75549;BME280;64133;56.002;37.208;2023-03-17T11:13:36;99998.30;;;17.36;15.38
75549;BME280;64133;56.002;37.208;2023-03-17T11:18:41;100006.44;;;14.11;16.19
75549;BME280;64133;56.002;37.208;2023-03-17T11:23:50;100008.68;;;12.40;16.58
75549;BME280;64133;56.002;37.208;2023-03-17T11:28:58;100013.55;;;10.27;18.40
75549;BME280;64133;56.002;37.208;2023-03-17T11:34:01;100013.11;;;9.37;20.95
75549;BME280;64133;56.002;37.208;2023-03-17T11:39:09;100026.29;;;12.78;17.90
75549;BME280;64133;56.002;37.208;2023-03-17T11:44:56;100023.87;;;13.77;16.68
75549;BME280;64133;56.002;37.208;2023-03-17T11:50:02;100033.98;;;13.30;17.40
75549;BME280;64133;56.002;37.208;2023-03-17T11:55:09;100005.92;;;12.36;16.23
75549;BME280;64133;56.002;37.208;2023-03-17T12:00:17;100030.80;;;10.81;17.12
75549;BME280;64133;56.002;37.208;2023-03-17T12:05:22;100029.66;;;10.72;16.95
75549;BME280;64133;56.002;37.208;2023-03-17T12:10:27;100033.05;;;12.04;17.36
75549;BME280;64133;56.002;37.208;2023-03-17T12:15:33;100037.39;;;9.28;19.11
75549;BME280;64133;56.002;37.208;2023-03-17T12:20:38;100040.23;;;8.84;20.03
75549;BME280;64133;56.002;37.208;2023-03-17T12:25:44;100053.59;;;8.66;21.72
75549;BME280;64133;56.002;37.208;2023-03-17T12:30:48;100050.69;;;7.85;21.53
75549;BME280;64133;56.002;37.208;2023-03-17T12:35:53;100046.48;;;7.90;23.56
75549;BME280;64133;56.002;37.208;2023-03-17T12:41:13;100064.54;;;7.87;23.19
75549;BME280;64133;56.002;37.208;2023-03-17T12:46:34;100063.78;;;7.71;23.66
75549;BME280;64133;56.002;37.208;2023-03-17T12:51:51;100067.55;;;7.51;23.37
75549;BME280;64133;56.002;37.208;2023-03-17T12:57:00;100066.89;;;7.01;23.95
75549;BME280;64133;56.002;37.208;2023-03-17T13:02:14;100073.14;;;7.22;23.74
75549;BME280;64133;56.002;37.208;2023-03-17T13:07:20;100076.91;;;7.25;22.84
75549;BME280;64133;56.002;37.208;2023-03-17T13:24:33;100094.19;;;5.28;23.62
75549;BME280;64133;56.002;37.208;2023-03-17T13:29:41;100096.73;;;5.02;23.67
75549;BME280;64133;56.002;37.208;2023-03-17T13:40:17;100102.45;;;4.92;24.21
75549;BME280;64133;56.002;37.208;2023-03-17T13:45:40;100112.95;;;5.09;24.56
75549;BME280;64133;56.002;37.208;2023-03-17T13:50:43;100114.00;;;4.77;23.91
75549;BME280;64133;56.002;37.208;2023-03-17T13:56:06;100119.81;;;4.74;25.10
75549;BME280;64133;56.002;37.208;2023-03-17T14:01:09;100121.56;;;4.84;25.17
75549;BME280;64133;56.002;37.208;2023-03-17T14:06:14;100118.37;;;4.77;25.60
75549;BME280;64133;56.002;37.208;2023-03-17T14:11:25;100128.98;;;4.83;26.10
75549;BME280;64133;56.002;37.208;2023-03-17T14:16:30;100138.66;;;4.81;26.13
75549;BME280;64133;56.002;37.208;2023-03-17T14:21:34;100139.50;;;4.52;25.53
75549;BME280;64133;56.002;37.208;2023-03-17T14:26:39;100145.73;;;4.29;25.30
75549;BME280;64133;56.002;37.208;2023-03-17T14:31:47;100144.44;;;4.29;26.17
75549;BME280;64133;56.002;37.208;2023-03-17T14:36:52;100141.45;;;4.08;25.80
75549;BME280;64133;56.002;37.208;2023-03-17T14:42:01;100149.13;;;4.00;26.96
75549;BME280;64133;56.002;37.208;2023-03-17T14:47:11;100159.52;;;3.92;27.02
75549;BME280;64133;56.002;37.208;2023-03-17T14:52:19;100159.75;;;3.86;27.55
75549;BME280;64133;56.002;37.208;2023-03-17T14:57:25;100166.91;;;3.70;27.75
75549;BME280;64133;56.002;37.208;2023-03-17T15:02:31;100169.77;;;3.52;27.42
75549;BME280;64133;56.002;37.208;2023-03-17T15:07:37;100175.26;;;3.35;27.50
75549;BME280;64133;56.002;37.208;2023-03-17T15:12:41;100186.75;;;3.07;27.14
75549;BME280;64133;56.002;37.208;2023-03-17T15:17:47;100195.28;;;2.87;27.79
75549;BME280;64133;56.002;37.208;2023-03-17T15:28:12;100201.55;;;2.70;29.24
75549;BME280;64133;56.002;37.208;2023-03-17T15:33:20;100207.42;;;2.40;29.21
75549;BME280;64133;56.002;37.208;2023-03-17T15:38:24;100212.34;;;2.22;30.03
75549;BME280;64133;56.002;37.208;2023-03-17T15:43:29;100220.95;;;2.11;31.16
75549;BME280;64133;56.002;37.208;2023-03-17T15:48:34;100223.95;;;1.99;31.56
75549;BME280;64133;56.002;37.208;2023-03-17T15:53:38;100242.73;;;1.81;32.42
75549;BME280;64133;56.002;37.208;2023-03-17T15:58:43;100243.17;;;1.67;32.88
75549;BME280;64133;56.002;37.208;2023-03-17T16:03:48;100259.04;;;1.58;33.83
75549;BME280;64133;56.002;37.208;2023-03-17T16:08:52;100268.49;;;1.45;34.19
75549;BME280;64133;56.002;37.208;2023-03-17T16:13:57;100271.70;;;1.39;34.37
75549;BME280;64133;56.002;37.208;2023-03-17T16:19:01;100279.77;;;1.30;35.20
75549;BME280;64133;56.002;37.208;2023-03-17T16:24:08;100291.98;;;1.11;35.44
75549;BME280;64133;56.002;37.208;2023-03-17T16:29:13;100295.67;;;1.03;35.60
75549;BME280;64133;56.002;37.208;2023-03-17T16:34:18;100301.52;;;0.94;35.76
75549;BME280;64133;56.002;37.208;2023-03-17T16:39:22;100315.56;;;0.87;36.35
75549;BME280;64133;56.002;37.208;2023-03-17T16:44:27;100317.75;;;0.70;36.69
75549;BME280;64133;56.002;37.208;2023-03-17T16:49:32;100315.75;;;0.63;36.95
75549;BME280;64133;56.002;37.208;2023-03-17T16:54:36;100324.23;;;0.52;36.31
75549;BME280;64133;56.002;37.208;2023-03-17T16:59:41;100326.55;;;0.46;35.31
75549;BME280;64133;56.002;37.208;2023-03-17T17:04:46;100329.42;;;0.36;35.68
75549;BME280;64133;56.002;37.208;2023-03-17T17:09:50;100333.04;;;0.29;36.29
75549;BME280;64133;56.002;37.208;2023-03-17T17:14:55;100329.71;;;0.23;35.09
75549;BME280;64133;56.002;37.208;2023-03-17T17:20:00;100340.85;;;0.09;35.10
75549;BME280;64133;56.002;37.208;2023-03-17T17:25:05;100351.34;;;0.03;35.19
75549;BME280;64133;56.002;37.208;2023-03-17T17:30:13;100356.63;;;-0.02;35.42
75549;BME280;64133;56.002;37.208;2023-03-17T17:35:17;100359.92;;;-0.14;35.52
75549;BME280;64133;56.002;37.208;2023-03-17T17:40:22;100366.99;;;-0.21;35.64
75549;BME280;64133;56.002;37.208;2023-03-17T17:45:27;100377.02;;;-0.27;35.57
75549;BME280;64133;56.002;37.208;2023-03-17T17:50:32;100379.45;;;-0.40;36.66
75549;BME280;64133;56.002;37.208;2023-03-17T17:55:36;100381.78;;;-0.48;36.75
75549;BME280;64133;56.002;37.208;2023-03-17T18:00:41;100381.83;;;-0.50;36.49
75549;BME280;64133;56.002;37.208;2023-03-17T18:05:46;100394.11;;;-0.61;36.95
75549;BME280;64133;56.002;37.208;2023-03-17T18:10:51;100397.23;;;-0.66;37.20
75549;BME280;64133;56.002;37.208;2023-03-17T18:15:55;100403.35;;;-0.70;37.48
75549;BME280;64133;56.002;37.208;2023-03-17T18:21:00;100416.37;;;-0.75;37.67
75549;BME280;64133;56.002;37.208;2023-03-17T18:26:05;100420.02;;;-0.85;38.74
75549;BME280;64133;56.002;37.208;2023-03-17T18:31:10;100432.20;;;-0.92;39.78
75549;BME280;64133;56.002;37.208;2023-03-17T18:36:14;100427.02;;;-0.90;40.09
75549;BME280;64133;56.002;37.208;2023-03-17T18:41:20;100427.55;;;-0.97;40.79
75549;BME280;64133;56.002;37.208;2023-03-17T18:46:25;100434.50;;;-1.01;41.03
75549;BME280;64133;56.002;37.208;2023-03-17T18:51:29;100445.38;;;-1.06;41.30
75549;BME280;64133;56.002;37.208;2023-03-17T18:56:34;100449.89;;;-1.18;41.00
75549;BME280;64133;56.002;37.208;2023-03-17T19:01:39;100447.79;;;-1.22;41.16
75549;BME280;64133;56.002;37.208;2023-03-17T19:06:43;100446.94;;;-1.22;40.80
75549;BME280;64133;56.002;37.208;2023-03-17T19:11:48;100457.72;;;-1.21;40.67
75549;BME280;64133;56.002;37.208;2023-03-17T19:16:52;100459.02;;;-1.23;40.76
75549;BME280;64133;56.002;37.208;2023-03-17T19:21:57;100467.73;;;-1.29;41.03
75549;BME280;64133;56.002;37.208;2023-03-17T19:27:02;100469.98;;;-1.36;40.90
75549;BME280;64133;56.002;37.208;2023-03-17T19:32:06;100473.92;;;-1.39;41.42
75549;BME280;64133;56.002;37.208;2023-03-17T19:37:11;100483.45;;;-1.44;41.68
75549;BME280;64133;56.002;37.208;2023-03-17T19:42:16;100482.30;;;-1.52;42.18
75549;BME280;64133;56.002;37.208;2023-03-17T19:47:20;100479.30;;;-1.54;41.77
75549;BME280;64133;56.002;37.208;2023-03-17T19:52:25;100486.69;;;-1.58;41.88
75549;BME280;64133;56.002;37.208;2023-03-17T19:57:30;100490.69;;;-1.67;42.22
75549;BME280;64133;56.002;37.208;2023-03-17T20:02:35;100490.25;;;-1.65;41.99
75549;BME280;64133;56.002;37.208;2023-03-17T20:07:39;100500.61;;;-1.68;42.44
75549;BME280;64133;56.002;37.208;2023-03-17T20:12:44;100501.09;;;-1.72;42.67
75549;BME280;64133;56.002;37.208;2023-03-17T20:17:49;100498.59;;;-1.80;42.49
75549;BME280;64133;56.002;37.208;2023-03-17T20:22:54;100504.23;;;-1.82;42.70
75549;BME280;64133;56.002;37.208;2023-03-17T20:27:58;100506.47;;;-1.89;42.77
75549;BME280;64133;56.002;37.208;2023-03-17T20:33:03;100509.11;;;-1.93;43.00
75549;BME280;64133;56.002;37.208;2023-03-17T20:38:08;100512.63;;;-2.00;43.37
75549;BME280;64133;56.002;37.208;2023-03-17T20:43:12;100507.98;;;-2.07;43.58
75549;BME280;64133;56.002;37.208;2023-03-17T20:48:17;100515.76;;;-2.10;43.79
75549;BME280;64133;56.002;37.208;2023-03-17T20:53:23;100515.90;;;-2.21;44.13
75549;BME280;64133;56.002;37.208;2023-03-17T20:58:27;100519.87;;;-2.32;44.46
75549;BME280;64133;56.002;37.208;2023-03-17T21:03:32;100518.20;;;-2.34;44.57
75549;BME280;64133;56.002;37.208;2023-03-17T21:08:37;100522.16;;;-2.43;45.01
75549;BME280;64133;56.002;37.208;2023-03-17T21:13:41;100528.56;;;-2.39;44.81
75549;BME280;64133;56.002;37.208;2023-03-17T21:18:46;100538.37;;;-2.31;44.22
75549;BME280;64133;56.002;37.208;2023-03-17T21:23:50;100535.41;;;-2.35;44.01
75549;BME280;64133;56.002;37.208;2023-03-17T21:28:55;100540.61;;;-2.41;44.27
75549;BME280;64133;56.002;37.208;2023-03-17T21:34:00;100549.20;;;-2.39;44.17
75549;BME280;64133;56.002;37.208;2023-03-17T21:39:04;100544.59;;;-2.51;44.44
75549;BME280;64133;56.002;37.208;2023-03-17T21:44:09;100557.02;;;-2.46;44.21
75549;BME280;64133;56.002;37.208;2023-03-17T21:49:14;100560.08;;;-2.51;44.41
75549;BME280;64133;56.002;37.208;2023-03-17T21:54:19;100562.66;;;-2.51;44.47
75549;BME280;64133;56.002;37.208;2023-03-17T21:59:23;100569.61;;;-2.60;44.69
75549;BME280;64133;56.002;37.208;2023-03-17T22:04:28;100584.70;;;-2.65;44.67
75549;BME280;64133;56.002;37.208;2023-03-17T22:09:33;100588.17;;;-2.69;44.69
75549;BME280;64133;56.002;37.208;2023-03-17T22:14:37;100592.08;;;-2.74;44.78
75549;BME280;64133;56.002;37.208;2023-03-17T22:19:42;100601.99;;;-2.78;44.80
75549;BME280;64133;56.002;37.208;2023-03-17T22:24:47;100602.87;;;-2.84;44.89
75549;BME280;64133;56.002;37.208;2023-03-17T22:29:51;100614.07;;;-2.88;45.00
75549;BME280;64133;56.002;37.208;2023-03-17T22:34:56;100618.85;;;-2.96;45.17
75549;BME280;64133;56.002;37.208;2023-03-17T22:40:01;100617.16;;;-2.97;45.33
75549;BME280;64133;56.002;37.208;2023-03-17T22:45:07;100624.03;;;-2.98;45.33
75549;BME280;64133;56.002;37.208;2023-03-17T22:50:12;100631.38;;;-3.04;45.43
75549;BME280;64133;56.002;37.208;2023-03-17T22:55:17;100634.00;;;-3.14;45.62
75549;BME280;64133;56.002;37.208;2023-03-17T23:00:22;100644.77;;;-3.19;45.66
75549;BME280;64133;56.002;37.208;2023-03-17T23:05:27;100643.06;;;-3.17;45.65
75549;BME280;64133;56.002;37.208;2023-03-17T23:10:31;100642.60;;;-3.15;45.62
75549;BME280;64133;56.002;37.208;2023-03-17T23:15:36;100647.73;;;-3.14;45.41
75549;BME280;64133;56.002;37.208;2023-03-17T23:20:41;100652.52;;;-3.24;45.45
75549;BME280;64133;56.002;37.208;2023-03-17T23:25:45;100656.80;;;-3.20;45.31
75549;BME280;64133;56.002;37.208;2023-03-17T23:30:50;100655.13;;;-3.25;45.33
75549;BME280;64133;56.002;37.208;2023-03-17T23:35:55;100661.58;;;-3.30;45.42
75549;BME280;64133;56.002;37.208;2023-03-17T23:40:59;100661.98;;;-3.27;45.49
75549;BME280;64133;56.002;37.208;2023-03-17T23:46:04;100672.78;;;-3.39;45.64
75549;BME280;64133;56.002;37.208;2023-03-17T23:51:09;100673.20;;;-3.41;45.81
75549;BME280;64133;56.002;37.208;2023-03-17T23:56:14;100670.25;;;-3.48;45.76
